createdAt,value
2023-05-11T00:00:49.562Z,20.47
2023-05-11T00:01:51.106Z,23.00
2023-05-11T00:02:53.033Z,21.07
2023-05-11T00:03:56.238Z,19.67
2023-05-11T00:04:58.319Z,20.97
2023-05-11T00:06:00.256Z,21.47
2023-05-11T00:07:01.783Z,19.50
2023-05-11T00:08:03.351Z,19.60
2023-05-11T00:09:05.255Z,20.03
2023-05-11T00:10:07.579Z,20.23
2023-05-11T00:11:09.330Z,22.00
2023-05-11T00:12:11.052Z,25.87
2023-05-11T00:13:12.610Z,18.43
2023-05-11T00:14:14.155Z,19.93
2023-05-11T00:15:15.726Z,23.03
2023-05-11T00:16:17.355Z,20.23
2023-05-11T00:17:20.615Z,19.40
2023-05-11T00:18:22.255Z,22.13
2023-05-11T00:19:23.837Z,19.23
2023-05-11T00:20:25.428Z,19.83
2023-05-11T00:21:26.999Z,21.80
2023-05-11T00:22:28.720Z,21.37
2023-05-11T00:23:30.421Z,21.60
2023-05-11T00:24:31.962Z,20.50
2023-05-11T00:25:33.618Z,19.13
2023-05-11T00:26:35.129Z,20.20
2023-05-11T00:27:36.688Z,22.30
2023-05-11T00:28:38.204Z,21.43
2023-05-11T00:29:39.772Z,19.90
2023-05-11T00:30:41.470Z,21.20
2023-05-11T00:31:43.143Z,24.40
2023-05-11T00:32:45.395Z,21.17
2023-05-11T00:33:46.988Z,24.13
2023-05-11T00:34:48.520Z,20.90
2023-05-11T00:35:51.035Z,21.43
2023-05-11T00:36:52.586Z,21.90
2023-05-11T00:37:54.151Z,23.33
2023-05-11T00:38:55.687Z,20.33
2023-05-11T00:39:57.242Z,22.07
2023-05-11T00:40:58.787Z,25.80
2023-05-11T00:42:00.877Z,22.63
2023-05-11T00:43:02.445Z,20.33
2023-05-11T00:44:04.011Z,22.67
2023-05-11T00:45:06.332Z,24.50
2023-05-11T00:46:07.867Z,26.00
2023-05-11T00:47:09.531Z,22.30
2023-05-11T00:48:11.354Z,25.20
2023-05-11T00:49:17.160Z,20.50
2023-05-11T00:50:19.317Z,20.83
2023-05-11T00:51:23.828Z,22.30
2023-05-11T00:52:25.485Z,23.37
2023-05-11T00:53:27.259Z,22.07
2023-05-11T00:54:28.883Z,22.73
2023-05-11T00:55:30.629Z,21.53
2023-05-11T00:56:32.205Z,20.23
2023-05-11T00:57:36.197Z,22.13
2023-05-11T00:58:38.009Z,22.00
2023-05-11T00:59:39.613Z,22.00
2023-05-11T01:00:41.308Z,19.80
2023-05-11T01:01:43.014Z,20.27
2023-05-11T01:02:45.283Z,20.97
2023-05-11T01:03:47.726Z,20.23
2023-05-11T01:04:49.412Z,20.23
2023-05-11T01:06:32.689Z,22.27
2023-05-11T01:07:51.412Z,19.80
2023-05-11T01:09:20.565Z,21.00
2023-05-11T01:10:42.730Z,18.10
2023-05-11T01:11:52.027Z,18.60
2023-05-11T01:13:02.701Z,18.67
2023-05-11T01:14:11.540Z,18.43
2023-05-11T01:15:21.554Z,19.13
2023-05-11T01:16:27.024Z,19.43
2023-05-11T01:17:42.481Z,20.27
2023-05-11T01:18:59.008Z,18.33
2023-05-11T01:20:07.354Z,20.40
2023-05-11T01:21:09.862Z,20.20
2023-05-11T01:22:36.193Z,18.77
2023-05-11T01:23:40.641Z,19.63
2023-05-11T01:25:06.760Z,17.90
2023-05-11T01:26:35.224Z,21.33
2023-05-11T01:28:20.424Z,20.10
2023-05-11T01:29:43.197Z,19.87
2023-05-11T01:30:47.451Z,17.17
2023-05-11T01:31:50.516Z,18.20
2023-05-11T01:32:55.557Z,18.10
2023-05-11T01:34:04.879Z,16.70
2023-05-11T01:35:10.956Z,16.87
2023-05-11T01:36:14.805Z,16.90
2023-05-11T01:37:22.974Z,16.03
2023-05-11T01:38:28.905Z,19.53
2023-05-11T01:39:37.308Z,18.07
2023-05-11T01:40:41.914Z,17.23
2023-05-11T01:41:51.641Z,14.90
2023-05-11T01:43:05.023Z,14.67
2023-05-11T01:44:10.585Z,19.07
2023-05-11T01:45:13.757Z,16.43
2023-05-11T01:46:17.102Z,13.33
2023-05-11T01:47:20.330Z,13.20
2023-05-11T01:48:25.562Z,13.23
2023-05-11T01:49:27.913Z,13.50
2023-05-11T01:50:32.419Z,13.77
2023-05-11T01:51:39.971Z,12.10
2023-05-11T01:52:43.112Z,11.47
2023-05-11T01:53:46.689Z,10.27
2023-05-11T01:54:49.976Z,12.57
2023-05-11T01:55:52.624Z,14.00
2023-05-11T01:56:56.446Z,10.10
2023-05-11T01:57:59.592Z,11.27
2023-05-11T01:59:02.437Z,13.90
2023-05-11T02:00:04.923Z,12.10
2023-05-11T02:01:07.248Z,11.00
2023-05-11T02:02:10.115Z,10.87
2023-05-11T02:03:12.880Z,10.13
2023-05-11T02:04:16.005Z,14.33
2023-05-11T02:05:21.283Z,10.30
2023-05-11T02:06:24.832Z,14.27
2023-05-11T02:07:28.080Z,11.73
2023-05-11T02:08:32.274Z,11.23
2023-05-11T02:09:36.122Z,11.33
2023-05-11T02:10:40.589Z,16.30
2023-05-11T02:11:43.834Z,12.80
2023-05-11T02:12:46.806Z,13.13
2023-05-11T02:13:50.788Z,11.63
2023-05-11T02:14:53.957Z,13.47
2023-05-11T02:15:58.664Z,13.67
2023-05-11T02:17:02.419Z,11.43
2023-05-11T02:18:06.934Z,12.17
2023-05-11T02:19:08.895Z,12.83
2023-05-11T02:20:11.678Z,13.03
2023-05-11T02:21:15.410Z,11.63
2023-05-11T02:22:17.888Z,11.73
2023-05-11T02:23:20.657Z,14.10
2023-05-11T02:24:24.520Z,13.47
2023-05-11T02:25:26.806Z,11.43
2023-05-11T02:26:28.515Z,11.20
2023-05-11T02:27:30.193Z,13.63
2023-05-11T02:28:31.862Z,11.20
2023-05-11T02:29:33.490Z,12.97
2023-05-11T02:30:56.341Z,13.67
2023-05-11T02:32:12.298Z,11.43
2023-05-11T02:33:24.504Z,13.67
2023-05-11T02:34:29.196Z,11.77
2023-05-11T02:35:36.229Z,13.23
2023-05-11T02:36:39.015Z,11.93
2023-05-11T02:37:45.341Z,10.57
2023-05-11T02:38:48.290Z,12.17
2023-05-11T02:39:55.920Z,12.50
2023-05-11T02:41:01.425Z,13.43
2023-05-11T02:42:19.041Z,14.70
2023-05-11T02:43:28.849Z,15.40
2023-05-11T02:44:35.128Z,15.63
2023-05-11T02:45:37.750Z,16.50
2023-05-11T02:46:40.591Z,17.13
2023-05-11T02:47:56.671Z,15.13
2023-05-11T02:49:02.255Z,14.17
2023-05-11T02:50:05.936Z,16.10
2023-05-11T02:51:09.983Z,17.87
2023-05-11T02:52:13.300Z,15.47
2023-05-11T02:53:17.431Z,15.10
2023-05-11T02:54:19.648Z,14.77
2023-05-11T02:55:23.620Z,17.60
2023-05-11T02:56:26.087Z,16.83
2023-05-11T02:57:27.812Z,16.77
2023-05-11T02:58:30.353Z,16.37
2023-05-11T02:59:32.736Z,15.87
2023-05-11T03:00:34.964Z,14.50
2023-05-11T03:01:37.220Z,16.57
2023-05-11T03:02:39.144Z,16.63
2023-05-11T03:03:41.282Z,15.87
2023-05-11T03:04:42.897Z,16.43
2023-05-11T03:05:44.881Z,17.53
2023-05-11T03:06:46.560Z,14.40
2023-05-11T03:07:48.257Z,14.40
2023-05-11T03:08:50.013Z,15.37
2023-05-11T03:09:52.164Z,15.90
2023-05-11T03:10:54.342Z,16.37
2023-05-11T03:11:57.066Z,14.87
2023-05-11T03:12:59.108Z,18.67
2023-05-11T03:14:02.179Z,15.83
2023-05-11T03:15:04.761Z,17.30
2023-05-11T03:16:07.853Z,16.77
2023-05-11T03:17:10.082Z,14.67
2023-05-11T03:18:12.347Z,19.77
2023-05-11T03:19:15.194Z,15.23
2023-05-11T03:20:19.386Z,15.20
2023-05-11T03:21:23.278Z,17.73
2023-05-11T03:22:26.065Z,16.33
2023-05-11T03:23:29.864Z,17.00
2023-05-11T03:24:31.629Z,16.67
2023-05-11T03:25:33.801Z,19.83
2023-05-11T03:26:36.406Z,17.17
2023-05-11T03:27:39.437Z,19.47
2023-05-11T03:28:44.503Z,20.80
2023-05-11T03:29:47.610Z,22.33
2023-05-11T03:30:51.485Z,20.63
2023-05-11T03:31:54.869Z,20.77
2023-05-11T03:32:56.618Z,21.63
2023-05-11T03:33:58.419Z,21.73
2023-05-11T03:35:00.166Z,21.87
2023-05-11T03:36:04.473Z,22.67
2023-05-11T03:37:08.022Z,21.03
2023-05-11T03:38:12.446Z,20.37
2023-05-11T03:39:16.445Z,19.60
2023-05-11T03:40:19.866Z,18.50
2023-05-11T03:41:22.680Z,18.10
2023-05-11T03:42:26.588Z,17.67
2023-05-11T03:43:31.904Z,19.47
2023-05-11T03:44:34.409Z,20.00
2023-05-11T03:45:37.676Z,16.43
2023-05-11T03:46:41.927Z,16.80
2023-05-11T03:47:45.165Z,16.43
2023-05-11T03:48:48.172Z,17.47
2023-05-11T03:49:51.328Z,15.03
2023-05-11T03:50:53.536Z,14.87
2023-05-11T03:51:56.322Z,15.57
2023-05-11T03:52:59.254Z,24.03
2023-05-11T03:54:01.106Z,14.83
2023-05-11T03:55:03.670Z,15.43
2023-05-11T03:56:07.439Z,15.23
2023-05-11T03:57:10.126Z,14.43
2023-05-11T03:58:11.800Z,14.97
2023-05-11T03:59:16.784Z,13.90
2023-05-11T04:00:19.324Z,16.20
2023-05-11T04:01:22.847Z,14.13
2023-05-11T04:02:24.726Z,15.93
2023-05-11T04:03:26.708Z,14.33
2023-05-11T04:04:32.336Z,14.13
2023-05-11T04:05:33.933Z,15.80
2023-05-11T04:06:35.625Z,14.80
2023-05-11T04:07:38.868Z,13.83
2023-05-11T04:08:40.608Z,14.97
2023-05-11T04:09:42.184Z,13.73
2023-05-11T04:10:43.693Z,13.70
2023-05-11T04:11:45.378Z,15.23
2023-05-11T04:12:46.908Z,14.77
2023-05-11T04:13:48.465Z,13.47
2023-05-11T04:14:50.040Z,14.70
2023-05-11T04:15:54.249Z,15.37
2023-05-11T04:16:55.937Z,15.80
2023-05-11T04:17:57.579Z,14.53
2023-05-11T04:18:59.449Z,14.07
2023-05-11T04:20:01.307Z,14.17
2023-05-11T04:21:02.894Z,14.07
2023-05-11T04:22:04.441Z,13.83
2023-05-11T04:23:06.961Z,13.33
2023-05-11T04:24:09.286Z,14.13
2023-05-11T04:25:11.531Z,14.87
2023-05-11T04:26:13.301Z,13.97
2023-05-11T04:27:16.480Z,14.60
2023-05-11T04:28:18.596Z,15.83
2023-05-11T04:29:20.104Z,15.97
2023-05-11T04:30:22.022Z,14.97
2023-05-11T04:31:23.801Z,14.47
2023-05-11T04:32:25.430Z,15.53
2023-05-11T04:33:27.067Z,13.77
2023-05-11T04:34:28.636Z,14.30
2023-05-11T04:35:30.161Z,18.93
2023-05-11T04:36:33.014Z,14.60
2023-05-11T04:37:34.562Z,13.87
2023-05-11T04:38:36.748Z,14.00
2023-05-11T04:39:38.369Z,14.27
2023-05-11T04:40:39.996Z,16.17
2023-05-11T04:41:41.574Z,14.53
2023-05-11T04:42:43.229Z,14.37
2023-05-11T04:43:44.796Z,14.93
2023-05-11T04:44:46.504Z,14.60
2023-05-11T04:45:51.485Z,15.20
2023-05-11T04:46:56.761Z,14.83
2023-05-11T04:47:58.469Z,15.30
2023-05-11T04:49:00.121Z,14.50
2023-05-11T04:50:01.689Z,15.60
2023-05-11T04:51:06.840Z,16.67
2023-05-11T04:52:08.378Z,15.47
2023-05-11T04:53:10.310Z,16.23
2023-05-11T04:54:11.906Z,15.50
2023-05-11T04:55:13.428Z,16.83
2023-05-11T04:56:14.999Z,16.27
2023-05-11T04:57:16.562Z,16.03
2023-05-11T04:58:18.093Z,17.87
2023-05-11T04:59:19.709Z,17.70
2023-05-11T05:00:21.928Z,16.70
2023-05-11T05:01:23.725Z,18.47
2023-05-11T05:02:25.515Z,15.57
2023-05-11T05:03:27.201Z,17.63
2023-05-11T05:04:29.008Z,16.93
2023-05-11T05:05:30.809Z,17.30
2023-05-11T05:06:32.868Z,18.63
2023-05-11T05:07:34.447Z,18.80
2023-05-11T05:08:36.134Z,18.80
2023-05-11T05:09:37.644Z,19.13
2023-05-11T05:10:39.210Z,18.03
2023-05-11T05:11:40.860Z,18.47
2023-05-11T05:12:42.406Z,19.30
2023-05-11T05:13:44.175Z,19.37
2023-05-11T05:14:45.737Z,18.03
2023-05-11T05:15:47.362Z,18.10
2023-05-11T05:16:49.246Z,18.53
2023-05-11T05:17:50.842Z,18.27
2023-05-11T05:18:52.423Z,18.50
2023-05-11T05:19:53.953Z,17.10
2023-05-11T05:20:55.579Z,18.63
2023-05-11T05:21:57.149Z,19.27
2023-05-11T05:22:59.059Z,16.80
2023-05-11T05:24:00.814Z,17.87
2023-05-11T05:25:02.336Z,20.20
2023-05-11T05:26:03.997Z,22.80
2023-05-11T05:27:05.613Z,17.90
2023-05-11T05:28:07.197Z,15.60
2023-05-11T05:29:08.734Z,17.67
2023-05-11T05:30:10.493Z,20.27
2023-05-11T05:31:12.082Z,17.03
2023-05-11T05:32:13.889Z,17.87
2023-05-11T05:33:15.440Z,16.50
2023-05-11T05:34:16.990Z,15.20
2023-05-11T05:35:18.560Z,18.87
2023-05-11T05:36:20.093Z,18.03
2023-05-11T05:37:21.632Z,16.60
2023-05-11T05:38:23.206Z,16.77
2023-05-11T05:39:24.709Z,17.00
2023-05-11T05:40:26.330Z,19.10
2023-05-11T05:41:28.013Z,17.93
2023-05-11T05:42:29.649Z,20.27
2023-05-11T05:43:31.312Z,16.03
2023-05-11T05:44:32.843Z,19.57
2023-05-11T05:45:34.412Z,16.73
2023-05-11T05:46:36.423Z,18.80
2023-05-11T05:47:38.183Z,18.40
2023-05-11T05:48:39.823Z,17.73
2023-05-11T05:49:41.428Z,17.90
2023-05-11T05:50:43.007Z,18.87
2023-05-11T05:51:44.626Z,18.90
2023-05-11T05:52:46.247Z,17.67
2023-05-11T05:53:47.763Z,18.20
2023-05-11T05:54:49.350Z,18.97
2023-05-11T05:55:50.976Z,21.00
2023-05-11T05:56:52.544Z,18.43
2023-05-11T05:57:54.195Z,22.47
2023-05-11T05:58:56.637Z,18.63
2023-05-11T05:59:58.201Z,18.47
2023-05-11T06:01:00.889Z,20.83
2023-05-11T06:02:02.620Z,19.27
2023-05-11T06:03:04.293Z,18.23
2023-05-11T06:04:06.520Z,22.20
2023-05-11T06:05:09.913Z,18.23
2023-05-11T06:06:11.997Z,18.50
2023-05-11T06:07:14.254Z,18.80
2023-05-11T06:08:16.389Z,19.60
2023-05-11T06:09:17.938Z,18.97
2023-05-11T06:10:19.647Z,17.57
2023-05-11T06:11:21.799Z,18.07
2023-05-11T06:12:23.317Z,18.63
2023-05-11T06:13:24.993Z,16.97
2023-05-11T06:14:26.498Z,17.00
2023-05-11T06:15:28.188Z,16.67
2023-05-11T06:16:30.337Z,17.53
2023-05-11T06:17:31.993Z,15.33
2023-05-11T06:18:33.571Z,16.20
2023-05-11T06:19:35.243Z,16.60
2023-05-11T06:20:36.821Z,17.27
2023-05-11T06:21:38.407Z,16.57
2023-05-11T06:22:40.057Z,17.57
2023-05-11T06:23:41.633Z,16.73
2023-05-11T06:24:43.141Z,15.60
2023-05-11T06:25:44.808Z,16.77
2023-05-11T06:26:46.453Z,17.40
2023-05-11T06:27:48.026Z,16.43
2023-05-11T06:28:49.578Z,17.63
2023-05-11T06:29:51.185Z,17.47
2023-05-11T06:30:52.969Z,16.27
2023-05-11T06:31:55.917Z,17.10
2023-05-11T06:32:57.529Z,15.70
2023-05-11T06:33:59.276Z,15.13
2023-05-11T06:35:01.383Z,17.73
2023-05-11T06:36:06.885Z,15.73
2023-05-11T06:37:08.395Z,17.27
2023-05-11T06:38:09.913Z,16.37
2023-05-11T06:39:11.569Z,17.60
2023-05-11T06:40:16.331Z,16.13
2023-05-11T06:41:18.191Z,18.67
2023-05-11T06:42:19.761Z,16.80
2023-05-11T06:43:21.655Z,15.47
2023-05-11T06:44:23.217Z,17.37
2023-05-11T06:45:24.868Z,14.47
2023-05-11T06:46:26.699Z,16.20
2023-05-11T06:47:28.333Z,17.30
2023-05-11T06:48:30.174Z,13.30
2023-05-11T06:49:31.736Z,16.83
2023-05-11T06:50:33.518Z,13.73
2023-05-11T06:51:35.075Z,10.87
2023-05-11T06:52:36.608Z,14.77
2023-05-11T06:53:38.841Z,14.73
2023-05-11T06:54:40.603Z,13.33
2023-05-11T06:55:42.188Z,13.10
2023-05-11T06:56:43.850Z,11.50
2023-05-11T06:57:47.976Z,12.47
2023-05-11T06:58:49.906Z,11.70
2023-05-11T06:59:54.486Z,11.50
2023-05-11T07:00:56.601Z,11.27
2023-05-11T07:01:58.422Z,11.70
2023-05-11T07:02:59.997Z,12.47
2023-05-11T07:04:01.674Z,9.63
2023-05-11T07:05:03.620Z,11.30
2023-05-11T07:06:05.302Z,12.33
2023-05-11T07:07:07.311Z,14.80
2023-05-11T07:08:08.889Z,16.70
2023-05-11T07:09:10.415Z,16.10
2023-05-11T07:10:11.983Z,13.63
2023-05-11T07:11:15.400Z,16.27
2023-05-11T07:12:16.974Z,16.03
2023-05-11T07:13:18.531Z,15.53
2023-05-11T07:14:20.098Z,16.57
2023-05-11T07:15:21.746Z,15.23
2023-05-11T07:16:23.487Z,13.50
2023-05-11T07:17:25.077Z,10.63
2023-05-11T07:18:26.692Z,17.00
2023-05-11T07:19:28.231Z,13.60
2023-05-11T07:20:29.835Z,14.70
2023-05-11T07:21:32.840Z,15.50
2023-05-11T07:22:34.397Z,15.00
2023-05-11T07:23:36.020Z,13.50
2023-05-11T07:24:37.982Z,13.13
2023-05-11T07:25:39.573Z,13.23
2023-05-11T07:26:41.191Z,13.53
2023-05-11T07:27:42.905Z,12.80
2023-05-11T07:28:44.470Z,14.40
2023-05-11T07:29:46.144Z,12.30
2023-05-11T07:30:47.787Z,11.00
2023-05-11T07:31:49.440Z,11.03
2023-05-11T07:32:51.091Z,12.47
2023-05-11T07:33:53.353Z,12.83
2023-05-11T07:34:54.941Z,12.93
2023-05-11T07:35:56.546Z,12.60
2023-05-11T07:36:58.159Z,14.63
2023-05-11T07:37:59.726Z,12.13
2023-05-11T07:39:01.427Z,10.60
2023-05-11T07:40:03.136Z,12.70
2023-05-11T07:41:06.662Z,10.83
2023-05-11T07:42:08.718Z,12.43
2023-05-11T07:43:10.224Z,11.67
2023-05-11T07:44:11.828Z,11.13
2023-05-11T07:45:13.369Z,14.00
2023-05-11T07:46:14.991Z,13.20
2023-05-11T07:47:18.920Z,13.87
2023-05-11T07:48:20.890Z,11.07
2023-05-11T07:49:31.109Z,11.70
2023-05-11T07:50:42.529Z,11.20
2023-05-11T07:51:44.619Z,10.90
2023-05-11T07:52:46.175Z,6.93
2023-05-11T07:53:47.874Z,7.47
2023-05-11T07:54:49.427Z,8.10
2023-05-11T07:55:51.321Z,6.77
2023-05-11T07:56:53.673Z,6.47
2023-05-11T07:57:55.661Z,8.30
2023-05-11T07:58:57.224Z,7.97
2023-05-11T07:59:58.811Z,7.63
2023-05-11T08:01:00.320Z,6.93
2023-05-11T08:02:01.995Z,10.17
2023-05-11T08:03:03.642Z,5.83
2023-05-11T08:04:05.259Z,6.17
2023-05-11T08:05:07.450Z,7.60
2023-05-11T08:06:09.129Z,6.13
2023-05-11T08:07:10.769Z,7.83
2023-05-11T08:08:12.289Z,11.87
2023-05-11T08:09:14.958Z,7.47
2023-05-11T08:10:16.546Z,5.87
2023-05-11T08:11:18.158Z,10.00
2023-05-11T08:12:19.756Z,7.33
2023-05-11T08:13:21.512Z,7.80
2023-05-11T08:14:24.456Z,6.90
2023-05-11T08:15:26.139Z,8.37
2023-05-11T08:16:27.743Z,6.40
2023-05-11T08:17:30.187Z,11.30
2023-05-11T08:18:32.077Z,6.93
2023-05-11T08:19:33.669Z,12.10
2023-05-11T08:20:35.412Z,9.57
2023-05-11T08:21:37.046Z,6.17
2023-05-11T08:22:38.637Z,5.80
2023-05-11T08:23:40.156Z,5.90
2023-05-11T08:24:41.966Z,14.50
2023-05-11T08:25:51.485Z,8.43
2023-05-11T08:26:53.039Z,7.07
2023-05-11T08:27:54.572Z,8.77
2023-05-11T08:28:56.170Z,4.43
2023-05-11T08:29:58.225Z,8.03
2023-05-11T08:31:01.068Z,8.30
2023-05-11T08:32:02.619Z,5.03
2023-05-11T08:33:13.633Z,7.00
2023-05-11T08:34:25.124Z,8.93
2023-05-11T08:35:27.360Z,7.13
2023-05-11T08:36:28.979Z,7.80
2023-05-11T08:37:31.045Z,6.83
2023-05-11T08:38:33.376Z,5.80
2023-05-11T08:39:46.774Z,6.00
2023-05-11T08:40:51.279Z,8.80
2023-05-11T08:41:55.050Z,8.77
2023-05-11T08:42:57.857Z,7.20
2023-05-11T08:44:00.686Z,8.17
2023-05-11T08:45:04.337Z,4.73
2023-05-11T08:46:07.864Z,8.43
2023-05-11T08:47:22.552Z,8.00
2023-05-11T08:48:27.783Z,6.07
2023-05-11T08:49:29.455Z,4.73
2023-05-11T08:50:31.251Z,6.40
2023-05-11T08:51:33.293Z,9.73
2023-05-11T08:52:34.904Z,6.10
2023-05-11T08:53:36.471Z,5.97
2023-05-11T08:54:38.324Z,8.50
2023-05-11T08:55:41.823Z,8.20
2023-05-11T08:56:43.786Z,39.23
2023-05-11T08:57:46.975Z,4.90
2023-05-11T08:58:50.718Z,6.07
2023-05-11T08:59:53.978Z,7.43
2023-05-11T09:00:56.695Z,7.83
2023-05-11T09:01:59.464Z,4.77
2023-05-11T09:03:02.622Z,7.00
2023-05-11T09:04:05.464Z,6.00
2023-05-11T09:05:08.794Z,10.37
2023-05-11T09:06:11.110Z,5.53
2023-05-11T09:07:16.458Z,7.40
2023-05-11T09:08:19.458Z,4.47
2023-05-11T09:09:21.055Z,6.43
2023-05-11T09:10:22.696Z,10.47
2023-05-11T09:11:24.961Z,5.10
2023-05-11T09:12:28.442Z,8.47
2023-05-11T09:13:31.029Z,5.63
2023-05-11T09:14:33.152Z,8.53
2023-05-11T09:15:38.095Z,7.13
2023-05-11T09:16:39.985Z,4.90
2023-05-11T09:17:41.640Z,7.57
2023-05-11T09:18:50.972Z,6.23
2023-05-11T09:20:07.719Z,5.57
2023-05-11T09:21:09.258Z,6.27
2023-05-11T09:22:11.090Z,6.77
2023-05-11T09:23:16.956Z,9.20
2023-05-11T09:24:20.484Z,6.03
2023-05-11T09:25:23.545Z,6.57
2023-05-11T09:26:29.939Z,8.37
2023-05-11T09:27:32.455Z,5.70
2023-05-11T09:28:36.057Z,5.83
2023-05-11T09:29:37.963Z,4.57
2023-05-11T09:30:39.503Z,4.60
2023-05-11T09:31:42.338Z,5.57
2023-05-11T09:32:48.819Z,4.33
2023-05-11T09:33:50.397Z,6.97
2023-05-11T09:34:51.956Z,5.20
2023-05-11T09:35:53.708Z,5.60
2023-05-11T09:36:57.059Z,8.37
2023-05-11T09:38:12.684Z,5.73
2023-05-11T09:39:16.476Z,8.30
2023-05-11T09:40:27.283Z,5.63
2023-05-11T09:41:34.895Z,5.00
2023-05-11T09:42:37.023Z,6.50
2023-05-11T09:43:38.667Z,5.27
2023-05-11T09:44:41.788Z,5.80
2023-05-11T09:45:45.429Z,9.50
2023-05-11T09:46:47.621Z,4.50
2023-05-11T09:47:49.335Z,7.43
2023-05-11T09:49:02.580Z,6.30
2023-05-11T09:50:17.291Z,5.03
2023-05-11T09:51:30.530Z,5.17
2023-05-11T09:52:32.112Z,4.47
2023-05-11T09:53:45.571Z,6.00
2023-05-11T09:54:49.949Z,4.10
2023-05-11T09:55:52.955Z,7.20
2023-05-11T09:56:56.980Z,6.10
2023-05-11T09:58:00.053Z,7.43
2023-05-11T09:59:01.791Z,4.30
2023-05-11T10:00:05.888Z,5.00
2023-05-11T10:01:12.993Z,4.20
2023-05-11T10:02:44.153Z,4.57
2023-05-11T10:03:52.086Z,5.00
2023-05-11T10:04:56.011Z,6.60
2023-05-11T10:06:00.663Z,5.67
2023-05-11T10:07:04.820Z,4.27
2023-05-11T10:08:06.598Z,5.47
2023-05-11T10:09:11.959Z,7.87
2023-05-11T10:10:13.891Z,4.90
2023-05-11T10:11:15.774Z,4.77
2023-05-11T10:12:18.726Z,5.60
2023-05-11T10:13:21.156Z,5.97
2023-05-11T10:14:24.771Z,7.93
2023-05-11T10:15:28.435Z,6.13
2023-05-11T10:16:31.338Z,4.97
2023-05-11T10:17:33.722Z,4.00
2023-05-11T10:18:36.866Z,3.67
2023-05-11T10:19:38.612Z,4.03
2023-05-11T10:20:40.726Z,4.97
2023-05-11T10:21:42.711Z,5.43
2023-05-11T10:22:45.972Z,5.27
2023-05-11T10:23:47.598Z,4.27
2023-05-11T10:24:50.894Z,5.23
2023-05-11T10:25:57.229Z,4.73
2023-05-11T10:26:59.977Z,5.10
2023-05-11T10:28:02.127Z,4.47
2023-05-11T10:29:04.718Z,4.63
2023-05-11T10:30:07.752Z,3.40
2023-05-11T10:31:09.866Z,3.97
2023-05-11T10:32:11.985Z,5.97
2023-05-11T10:33:14.002Z,6.07
2023-05-11T10:34:16.517Z,4.37
2023-05-11T10:35:18.874Z,3.50
2023-05-11T10:36:23.700Z,5.10
2023-05-11T10:37:26.569Z,6.93
2023-05-11T10:38:28.139Z,8.80
2023-05-11T10:39:30.876Z,10.77
2023-05-11T10:40:38.662Z,5.10
2023-05-11T10:42:11.366Z,4.03
2023-05-11T10:43:38.777Z,4.33
2023-05-11T10:44:55.304Z,5.43
2023-05-11T10:46:22.445Z,3.93
2023-05-11T10:47:27.418Z,4.37
2023-05-11T10:48:28.958Z,3.70
2023-05-11T10:50:03.011Z,4.33
2023-05-11T10:51:07.443Z,4.23
2023-05-11T10:52:30.286Z,6.03
2023-05-11T10:54:02.520Z,5.00
2023-05-11T10:55:39.466Z,7.10
2023-05-11T10:56:56.477Z,6.03
2023-05-11T10:58:07.792Z,8.43
2023-05-11T10:59:42.592Z,4.77
2023-05-11T11:01:08.678Z,6.50
2023-05-11T11:02:10.858Z,3.33
2023-05-11T11:03:14.067Z,3.50
2023-05-11T11:04:16.126Z,3.92
2023-05-11T11:05:33.683Z,3.30
2023-05-11T11:06:37.669Z,4.57
2023-05-11T11:08:04.074Z,4.33
2023-05-11T11:09:15.633Z,2.90
2023-05-11T11:10:31.678Z,4.60
2023-05-11T11:11:39.313Z,3.03
2023-05-11T11:12:59.955Z,3.20
2023-05-11T11:14:04.625Z,4.20
2023-05-11T11:15:07.267Z,3.40
2023-05-11T11:16:09.577Z,4.13
2023-05-11T11:17:17.274Z,5.30
2023-05-11T11:18:20.855Z,2.40
2023-05-11T11:19:35.851Z,4.33
2023-05-11T11:20:52.362Z,4.10
2023-05-11T11:21:53.931Z,2.70
2023-05-11T11:22:55.505Z,3.33
2023-05-11T11:23:57.142Z,2.90
2023-05-11T11:24:58.726Z,3.43
2023-05-11T11:26:00.956Z,3.37
2023-05-11T11:27:03.239Z,4.00
2023-05-11T11:28:05.447Z,5.73
2023-05-11T11:29:11.684Z,3.20
2023-05-11T11:30:34.890Z,5.70
2023-05-11T11:31:37.454Z,3.65
2023-05-11T11:32:39.129Z,4.50
2023-05-11T11:33:40.740Z,3.38
2023-05-11T11:34:42.367Z,3.28
2023-05-11T11:35:44.873Z,4.75
2023-05-11T11:36:55.785Z,2.88
2023-05-11T11:38:06.071Z,4.17
2023-05-11T11:39:08.120Z,3.30
2023-05-11T11:40:15.348Z,3.97
2023-05-11T11:41:29.462Z,2.97
2023-05-11T11:42:31.133Z,3.35
2023-05-11T11:43:47.311Z,2.53
2023-05-11T11:44:49.059Z,2.90
2023-05-11T11:45:51.507Z,2.47
2023-05-11T11:47:16.507Z,2.90
2023-05-11T11:48:23.518Z,2.97
2023-05-11T11:49:27.279Z,3.40
2023-05-11T11:50:28.963Z,2.88
2023-05-11T11:51:34.512Z,2.60
2023-05-11T11:52:36.230Z,3.65
2023-05-11T11:53:38.238Z,5.43
2023-05-11T11:54:41.723Z,2.78
2023-05-11T11:55:52.371Z,2.80
2023-05-11T11:56:53.906Z,2.90
2023-05-11T11:57:55.465Z,3.13
2023-05-11T11:59:01.373Z,2.75
2023-05-11T12:00:05.700Z,1.83
2023-05-11T12:01:22.828Z,3.33
2023-05-11T12:02:26.409Z,4.43
2023-05-11T12:03:28.384Z,2.27
2023-05-11T12:04:45.062Z,4.27
2023-05-11T12:05:48.126Z,3.60
2023-05-11T12:06:57.808Z,7.00
2023-05-11T12:08:05.556Z,2.87
2023-05-11T12:09:08.111Z,2.40
2023-05-11T12:10:12.484Z,2.42
2023-05-11T12:11:17.638Z,2.47
2023-05-11T12:12:20.972Z,3.15
2023-05-11T12:13:22.790Z,2.50
2023-05-11T12:14:25.259Z,2.83
2023-05-11T12:15:34.524Z,3.58
2023-05-11T12:16:36.071Z,3.67
2023-05-11T12:17:39.126Z,2.60
2023-05-11T12:18:42.040Z,5.22
2023-05-11T12:19:44.440Z,2.83
2023-05-11T12:20:46.310Z,3.03
2023-05-11T12:21:47.839Z,3.70
2023-05-11T12:22:49.829Z,3.85
2023-05-11T12:23:55.998Z,2.70
2023-05-11T12:25:00.307Z,4.10
2023-05-11T12:26:06.665Z,2.85
2023-05-11T12:27:08.521Z,2.87
2023-05-11T12:28:12.528Z,6.97
2023-05-11T12:29:15.364Z,2.57
2023-05-11T12:30:27.389Z,2.30
2023-05-11T12:31:35.449Z,4.23
2023-05-11T12:32:37.024Z,2.27
2023-05-11T12:33:49.217Z,3.30
2023-05-11T12:35:04.315Z,3.67
2023-05-11T12:36:06.428Z,2.77
2023-05-11T12:37:08.711Z,3.97
2023-05-11T12:38:11.056Z,2.47
2023-05-11T12:39:26.811Z,2.10
2023-05-11T12:40:28.504Z,2.73
2023-05-11T12:41:30.044Z,2.70
2023-05-11T12:42:33.287Z,1.93
2023-05-11T12:43:36.988Z,3.73
2023-05-11T12:44:40.756Z,8.77
2023-05-11T12:45:42.486Z,3.95
2023-05-11T12:46:48.696Z,3.93
2023-05-11T12:47:52.958Z,3.10
2023-05-11T12:48:54.690Z,4.13
2023-05-11T12:49:56.302Z,5.07
2023-05-11T12:50:57.982Z,2.23
2023-05-11T12:51:59.483Z,2.50
2023-05-11T12:53:16.395Z,4.37
2023-05-11T12:54:35.353Z,3.70
2023-05-11T12:55:37.020Z,4.72
2023-05-11T12:56:50.713Z,3.92
2023-05-11T12:57:54.622Z,3.30
2023-05-11T12:58:56.167Z,2.97
2023-05-11T13:00:08.054Z,4.18
2023-05-11T13:01:09.724Z,3.42
2023-05-11T13:02:15.991Z,2.05
2023-05-11T13:03:25.756Z,3.40
2023-05-11T13:04:31.014Z,2.15
2023-05-11T13:05:32.749Z,5.67
2023-05-11T13:06:34.328Z,3.75
2023-05-11T13:07:35.885Z,2.90
2023-05-11T13:08:39.014Z,2.00
2023-05-11T13:09:41.205Z,3.17
2023-05-11T13:10:42.766Z,2.40
2023-05-11T13:11:44.329Z,2.45
2023-05-11T13:12:50.476Z,4.65
2023-05-11T13:13:53.705Z,2.85
2023-05-11T13:15:12.840Z,3.88
2023-05-11T13:16:28.595Z,4.05
2023-05-11T13:17:35.674Z,3.43
2023-05-11T13:18:37.406Z,3.17
2023-05-11T13:19:39.590Z,1.88
2023-05-11T13:20:41.671Z,2.95
2023-05-11T13:21:46.511Z,2.65
2023-05-11T13:22:49.465Z,2.78
2023-05-11T13:23:51.702Z,2.67
2023-05-11T13:25:02.546Z,3.15
2023-05-11T13:26:04.338Z,2.25
2023-05-11T13:27:05.902Z,3.10
2023-05-11T13:28:07.550Z,2.22
2023-05-11T13:29:11.420Z,2.30
2023-05-11T13:30:13.566Z,2.85
2023-05-11T13:31:15.374Z,3.22
2023-05-11T13:32:17.109Z,2.85
2023-05-11T13:33:19.467Z,2.47
2023-05-11T13:34:21.200Z,1.73
2023-05-11T13:35:22.774Z,4.35
2023-05-11T13:36:24.320Z,1.67
2023-05-11T13:37:25.959Z,3.00
2023-05-11T13:38:27.488Z,2.95
2023-05-11T13:39:29.022Z,4.75
2023-05-11T13:40:30.657Z,2.80
2023-05-11T13:41:32.610Z,1.80
2023-05-11T13:42:34.293Z,3.05
2023-05-11T13:43:36.583Z,1.90
2023-05-11T13:44:38.203Z,1.77
2023-05-11T13:45:41.300Z,6.72
2023-05-11T13:46:43.187Z,6.25
2023-05-11T13:47:45.848Z,7.55
2023-05-11T13:48:47.816Z,8.38
2023-05-11T13:49:49.406Z,9.70
2023-05-11T13:50:50.963Z,8.55
2023-05-11T13:51:52.691Z,9.40
2023-05-11T13:52:54.286Z,8.98
2023-05-11T13:53:55.984Z,10.50
2023-05-11T13:54:57.539Z,10.00
2023-05-11T13:55:59.362Z,9.95
2023-05-11T13:57:01.945Z,9.10
2023-05-11T13:58:03.497Z,9.82